Time;durP1;ratioP1;P1;durP2;ratioP2;P2;SDS_P1;SDS_P2;PMS_P1;PMS_P2;Temp;Humidity;BMP_temperature;BMP_pressure;BME280_temperature;BME280_humidity;BME280_pressure;Samples;Min_cycle;Max_cycle;Signal;HPM_P1;HPM_P2
2022/05/08 00:02:01;;;;;;;13.00;3.70;;;;;;;17.74;32.31;95586.84;5074644;28;20480;-59
2022/05/08 00:04:28;;;;;;;8.60;3.30;;;;;;;17.90;32.44;95590.91;5075293;28;20530;-59
2022/05/08 00:06:55;;;;;;;4.80;3.00;;;;;;;17.71;32.56;95587.41;5074667;28;21109;-57
2022/05/08 00:09:22;;;;;;;6.27;3.03;;;;;;;17.80;32.85;95581.22;5075368;28;20519;-56
2022/05/08 00:11:49;;;;;;;6.13;2.97;;;;;;;17.70;32.79;95583.19;5074495;28;20433;-58
2022/05/08 00:14:15;;;;;;;8.73;3.20;;;;;;;17.48;32.71;95577.63;5075129;28;20449;-57
2022/05/08 00:16:42;;;;;;;8.47;3.43;;;;;;;17.41;33.25;95574.47;5074630;28;20434;-57
2022/05/08 00:19:09;;;;;;;5.63;4.10;;;;;;;17.31;33.53;95572.72;5072051;28;20438;-57
2022/05/08 00:21:38;;;;;;;5.53;3.97;;;;;;;17.24;33.77;95582.88;5071714;28;20430;-59
2022/05/08 00:24:06;;;;;;;7.23;3.10;;;;;;;17.21;33.72;95584.19;5071874;28;20446;-58
2022/05/08 00:26:33;;;;;;;4.80;2.87;;;;;;;17.10;34.12;95582.72;5071597;28;20446;-57
2022/05/08 00:29:00;;;;;;;10.23;3.43;;;;;;;17.03;33.69;95582.25;5071403;28;20546;-57
2022/05/08 00:31:27;;;;;;;6.80;3.20;;;;;;;17.26;33.80;95587.88;5071455;28;20438;-54
2022/05/08 00:33:53;;;;;;;4.27;3.00;;;;;;;16.93;34.30;95590.28;5071885;28;20470;-53
2022/05/08 00:36:21;;;;;;;9.07;3.70;;;;;;;17.30;33.66;95588.91;5071349;28;20449;-55
2022/05/08 00:38:48;;;;;;;5.53;3.50;;;;;;;17.15;32.95;95585.31;5071589;28;20512;-56
2022/05/08 00:41:15;;;;;;;10.30;3.40;;;;;;;16.25;33.93;95567.47;5071033;28;20438;-54
2022/05/08 00:43:42;;;;;;;11.13;3.50;;;;;;;16.60;33.60;95588.44;5072258;28;20449;-54
2022/05/08 00:46:10;;;;;;;6.80;2.90;;;;;;;16.93;33.63;95592.91;5071417;28;20438;-57
2022/05/08 00:48:40;;;;;;;6.57;3.33;;;;;;;16.94;33.14;95589.22;5071799;28;20572;-58
2022/05/08 00:51:09;;;;;;;6.90;3.60;;;;;;;16.84;33.64;95586.63;5071029;28;20506;-55
2022/05/08 00:53:39;;;;;;;9.87;3.30;;;;;;;17.18;32.75;95582.13;5071846;28;20469;-59
2022/05/08 00:56:08;;;;;;;7.47;3.20;;;;;;;17.03;33.17;95574.31;5071086;28;20450;-57
2022/05/08 00:58:36;;;;;;;6.57;3.40;;;;;;;16.79;33.13;95584.03;5071473;28;20426;-58
2022/05/08 01:01:04;;;;;;;5.97;3.93;;;;;;;16.29;33.34;95584.38;5070184;28;20474;-53
2022/05/08 01:03:32;;;;;;;6.27;3.73;;;;;;;16.98;33.46;95577.00;5070979;28;20454;-54
2022/05/08 01:06:07;;;;;;;7.23;3.30;;;;;;;16.68;33.14;95574.59;5070717;28;20457;-57
2022/05/08 01:08:36;;;;;;;5.43;3.53;;;;;;;16.58;33.92;95577.34;5071443;28;20564;-56
2022/05/08 01:11:05;;;;;;;7.73;3.60;;;;;;;16.93;33.66;95582.31;5070220;28;20442;-58
2022/05/08 01:13:32;;;;;;;6.63;4.17;;;;;;;16.44;33.64;95578.97;5070813;28;21003;-58
2022/05/08 01:15:59;;;;;;;7.47;3.73;;;;;;;16.63;33.99;95577.28;5070775;28;20513;-54
2022/05/08 01:18:27;;;;;;;7.97;3.50;;;;;;;16.80;33.96;95576.91;5070562;28;20533;-58
2022/05/08 01:20:54;;;;;;;5.90;4.00;;;;;;;16.67;33.40;95580.97;5070526;28;20477;-57
2022/05/08 01:23:24;;;;;;;5.70;3.93;;;;;;;16.63;33.91;95576.50;5070631;28;21232;-56
2022/05/08 01:25:56;;;;;;;9.60;4.23;;;;;;;16.69;33.41;95568.25;5070499;28;20488;-59
2022/05/08 01:28:24;;;;;;;11.03;4.23;;;;;;;16.59;33.46;95570.16;5070510;28;21027;-55
2022/05/08 01:30:53;;;;;;;9.37;4.57;;;;;;;16.75;33.97;95576.94;5069459;28;20491;-55
2022/05/08 01:33:22;;;;;;;10.20;5.57;;;;;;;16.63;33.78;95581.78;5070685;28;20438;-57
2022/05/08 01:35:51;;;;;;;8.70;5.53;;;;;;;16.47;34.10;95581.13;5070244;28;20824;-58
2022/05/08 01:38:22;;;;;;;9.60;5.73;;;;;;;16.64;34.23;95581.50;5070406;28;20453;-58
2022/05/08 01:40:50;;;;;;;7.93;5.33;;;;;;;16.44;34.21;95573.69;5070188;28;20437;-59
2022/05/08 01:43:18;;;;;;;12.80;6.20;;;;;;;16.28;33.85;95574.84;5070173;28;20517;-58
2022/05/08 01:45:45;;;;;;;11.23;6.23;;;;;;;16.18;34.21;95574.94;5070135;28;20536;-57
2022/05/08 01:48:22;;;;;;;8.57;5.20;;;;;;;16.59;33.61;95576.25;5070215;28;20573;-57
2022/05/08 01:50:51;;;;;;;10.23;4.67;;;;;;;16.66;33.44;95571.44;5070110;28;20476;-53
2022/05/08 01:53:19;;;;;;;12.73;4.90;;;;;;;16.65;33.57;95564.56;5070144;28;20872;-58
2022/05/08 01:55:49;;;;;;;6.73;4.63;;;;;;;16.35;33.58;95563.97;5070125;28;20526;-56
2022/05/08 01:58:17;;;;;;;9.97;4.80;;;;;;;15.98;33.91;95556.53;5069754;28;20457;-59
2022/05/08 02:00:46;;;;;;;9.07;4.57;;;;;;;15.95;33.49;95564.97;5069524;28;20598;-55
2022/05/08 02:03:14;;;;;;;7.03;4.30;;;;;;;15.98;33.79;95553.88;5069773;28;20968;-56
2022/05/08 02:05:42;;;;;;;11.40;4.77;;;;;;;15.97;34.11;95555.72;5069837;28;20438;-54
2022/05/08 02:08:11;;;;;;;10.63;4.13;;;;;;;15.54;34.90;95568.88;5069985;28;21939;-55
2022/05/08 02:10:38;;;;;;;9.73;4.20;;;;;;;15.55;34.98;95576.53;5069686;28;20955;-55
2022/05/08 02:13:07;;;;;;;8.63;4.40;;;;;;;15.91;33.83;95548.88;5070434;28;20453;-56
2022/05/08 02:15:34;;;;;;;8.37;4.40;;;;;;;16.14;34.05;95568.59;5069189;28;20783;-55
2022/05/08 02:18:04;;;;;;;11.23;5.00;;;;;;;15.84;34.34;95564.25;5069632;28;20484;-55
2022/05/08 02:20:31;;;;;;;7.93;4.77;;;;;;;15.94;33.87;95566.06;5076576;28;20515;-56
2022/05/08 02:22:59;;;;;;;9.23;4.97;;;;;;;16.05;33.65;95563.09;5090098;28;20446;-52
2022/05/08 02:25:26;;;;;;;12.10;5.57;;;;;;;16.03;33.45;95572.34;5089350;28;20441;-55
2022/05/08 02:27:54;;;;;;;8.70;5.10;;;;;;;15.79;33.64;95564.28;5089520;28;20476;-52
2022/05/08 02:30:22;;;;;;;10.30;5.27;;;;;;;15.14;34.99;95564.47;5089267;28;21021;-51
2022/05/08 02:32:51;;;;;;;7.60;5.33;;;;;;;15.76;33.58;95559.53;5089607;28;20442;-55
2022/05/08 02:35:22;;;;;;;8.27;5.17;;;;;;;15.95;33.62;95570.28;5089104;28;20963;-52
2022/05/08 02:37:52;;;;;;;8.13;5.00;;;;;;;15.76;33.89;95561.38;5089726;28;20900;-57
2022/05/08 02:40:22;;;;;;;8.40;5.80;;;;;;;15.66;33.73;95566.69;5088918;28;20869;-54
2022/05/08 02:42:49;;;;;;;9.57;6.17;;;;;;;15.47;33.63;95568.38;5089479;28;20473;-53
2022/05/08 02:45:16;;;;;;;12.80;7.03;;;;;;;15.76;33.65;95556.09;5088895;28;20445;-51
2022/05/08 02:47:43;;;;;;;13.30;6.27;;;;;;;15.50;34.08;95552.78;5089293;28;20437;-58
2022/05/08 02:50:11;;;;;;;13.93;6.27;;;;;;;15.04;33.79;95564.47;5088644;28;20486;-63
2022/05/08 02:52:39;;;;;;;14.40;6.07;;;;;;;14.94;34.54;95565.25;5089498;28;20546;-53
2022/05/08 02:58:34;;;;;;;6.37;4.57;;;;;;;15.46;32.83;95561.50;5089553;28;20445;-53
2022/05/08 06:08:30;;;;;;;7.67;4.10;;;;;;;15.77;34.66;95605.25;5089079;23;20499;-55
2022/05/08 06:10:57;;;;;;;11.30;4.23;;;;;;;16.04;33.44;95603.00;4950752;29;20485;-56
2022/05/08 06:13:24;;;;;;;8.80;3.83;;;;;;;15.91;35.04;95606.25;4951197;29;20463;-58
2022/05/08 06:15:50;;;;;;;10.53;4.03;;;;;;;16.45;33.48;95599.09;4950045;28;20439;-55
2022/05/08 06:18:18;;;;;;;10.70;4.23;;;;;;;16.67;33.47;95594.19;4950958;29;20443;-58
2022/05/08 06:20:45;;;;;;;5.83;3.70;;;;;;;16.72;33.34;95594.16;4950791;29;20479;-55
2022/05/08 06:23:12;;;;;;;5.63;3.50;;;;;;;16.90;32.67;95593.47;4950926;29;20443;-56
2022/05/08 06:25:41;;;;;;;9.23;3.70;;;;;;;17.45;32.64;95588.72;4949540;29;20486;-62
2022/05/08 06:28:09;;;;;;;9.23;4.43;;;;;;;16.89;34.12;95596.41;4936702;29;20454;-57
2022/05/08 06:30:36;;;;;;;8.60;3.80;;;;;;;17.73;33.24;95594.03;4932688;29;20471;-56
2022/05/08 06:33:03;;;;;;;9.50;3.97;;;;;;;17.20;33.27;95597.72;4932519;29;20448;-54
2022/05/08 06:35:39;;;;;;;5.77;3.23;;;;;;;18.10;31.42;95593.31;4937618;29;20447;-51
2022/05/08 06:38:10;;;;;;;7.77;3.73;;;;;;;17.82;32.00;95589.66;4929644;29;20464;-55
2022/05/08 06:40:38;;;;;;;7.10;3.57;;;;;;;17.44;30.60;95580.00;4935181;29;20607;-56
2022/05/08 06:43:06;;;;;;;7.90;3.43;;;;;;;17.74;30.93;95579.69;4935259;29;20451;-53
2022/05/08 06:45:34;;;;;;;9.10;3.60;;;;;;;17.35;31.97;95580.91;4930658;29;20479;-57
2022/05/08 06:48:05;;;;;;;14.50;11.53;;;;;;;17.66;31.30;95584.84;4931792;29;20472;-58
2022/05/08 06:50:33;;;;;;;11.23;6.90;;;;;;;17.24;32.44;95575.69;4934192;29;20491;-58
2022/05/08 06:53:04;;;;;;;11.80;6.57;;;;;;;17.95;30.95;95582.88;4936950;29;20446;-55
2022/05/08 06:55:33;;;;;;;11.40;4.23;;;;;;;18.01;34.30;95568.50;4933186;29;20463;-56
2022/05/08 06:57:59;;;;;;;12.63;6.23;;;;;;;17.52;30.95;95578.59;4937554;29;20460;-55
2022/05/08 07:03:16;;;;;;;7.57;4.30;;;;;;;17.39;31.34;95568.66;4930485;29;20537;-60
2022/05/08 07:05:45;;;;;;;8.53;3.73;;;;;;;17.63;31.20;95566.81;4943230;29;20443;-53
2022/05/08 07:08:13;;;;;;;8.77;3.80;;;;;;;18.06;30.31;95571.84;4929504;29;20472;-56
2022/05/08 07:10:40;;;;;;;7.53;3.70;;;;;;;18.70;29.84;95563.25;4929382;29;21107;-60
2022/05/08 07:13:08;;;;;;;21.70;15.13;;;;;;;18.30;32.50;95565.72;4932396;29;20452;-56
2022/05/08 07:15:36;;;;;;;11.77;7.93;;;;;;;18.92;31.63;95563.41;4934971;29;20444;-52
2022/05/08 07:18:23;;;;;;;10.73;5.00;;;;;;;18.27;30.63;95572.38;4933884;29;20494;-53
2022/05/08 07:20:49;;;;;;;7.20;3.50;;;;;;;18.16;30.51;95573.56;4950241;29;20435;-54
2022/05/08 07:23:17;;;;;;;15.73;3.60;;;;;;;18.54;30.38;95569.88;4950710;29;20466;-55
2022/05/08 07:25:45;;;;;;;7.80;3.80;;;;;;;18.75;30.22;95559.75;4949804;29;21028;-56
2022/05/08 07:28:13;;;;;;;7.47;3.53;;;;;;;18.96;31.38;95558.31;4952716;28;20502;-56
2022/05/08 07:30:41;;;;;;;6.47;3.20;;;;;;;18.08;30.40;95566.28;4953851;29;20494;-56
2022/05/08 07:33:08;;;;;;;7.40;3.33;;;;;;;18.57;30.04;95557.91;4954003;29;20491;-54
2022/05/08 07:38:26;;;;;;;9.37;3.97;;;;;;;19.41;30.59;95551.44;4954405;29;20459;-57
2022/05/08 07:41:00;;;;;;;11.47;3.60;;;;;;;19.59;29.88;95540.72;4954041;29;20463;-55
2022/05/08 07:43:27;;;;;;;9.33;4.07;;;;;;;19.44;28.92;95540.22;4953701;29;20957;-58
2022/05/08 07:45:54;;;;;;;13.20;4.00;;;;;;;19.54;30.14;95540.03;4951581;29;20518;-56
2022/05/08 07:48:21;;;;;;;68.73;47.13;;;;;;;19.80;28.85;95541.09;4934056;29;20551;-58
2022/05/08 07:50:49;;;;;;;50.33;40.37;;;;;;;20.23;28.46;95534.38;4934770;29;20496;-53
2022/05/08 07:53:20;;;;;;;37.03;5.33;;;;;;;19.89;29.87;95536.69;4934062;29;20835;-56
2022/05/08 07:55:51;;;;;;;4.27;3.40;;;;;;;19.39;30.82;95535.00;4934671;29;20835;-54
2022/05/08 07:58:23;;;;;;;6.30;3.70;;;;;;;20.38;28.48;95531.38;4934323;29;21300;-53
2022/05/08 08:00:53;;;;;;;8.10;4.07;;;;;;;20.49;28.03;95529.25;4933835;29;20819;-58
2022/05/08 08:03:25;;;;;;;30.23;19.43;;;;;;;20.70;27.89;95525.00;4939583;29;21063;-57
2022/05/08 08:05:53;;;;;;;12.13;7.63;;;;;;;20.28;30.06;95523.59;4936888;29;20525;-58
2022/05/08 08:08:34;;;;;;;8.03;3.90;;;;;;;19.61;28.96;95532.47;4932754;29;20544;-57
2022/05/08 08:11:03;;;;;;;7.47;4.27;;;;;;;19.94;29.67;95521.38;4933425;29;20958;-58
2022/05/08 08:13:32;;;;;;;6.23;3.43;;;;;;;20.25;29.06;95523.41;4932588;29;21198;-55
2022/05/08 08:16:01;;;;;;;5.67;3.50;;;;;;;20.22;28.55;95519.47;4932726;29;20491;-55
2022/05/08 08:18:28;;;;;;;7.70;4.00;;;;;;;20.44;28.28;95500.06;4942037;29;20448;-55
2022/05/08 08:20:55;;;;;;;10.97;4.63;;;;;;;20.58;28.62;95517.59;4949465;29;20455;-55
2022/05/08 08:23:23;;;;;;;16.80;8.50;;;;;;;20.62;28.87;95518.53;4932400;29;20681;-55
2022/05/08 08:25:51;;;;;;;10.00;5.00;;;;;;;21.02;29.05;95512.22;4937316;29;20487;-50
2022/05/08 08:28:19;;;;;;;9.77;4.03;;;;;;;21.58;27.37;95513.41;4941132;29;20446;-54
2022/05/08 08:30:46;;;;;;;7.30;3.70;;;;;;;21.62;27.12;95514.38;4935523;29;21076;-55
2022/05/08 08:33:13;;;;;;;7.47;3.67;;;;;;;21.18;27.32;95500.06;4934135;29;20450;-53
2022/05/08 08:35:40;;;;;;;6.87;3.30;;;;;;;21.52;27.44;95509.31;4933646;29;20444;-55
2022/05/08 08:38:09;;;;;;;9.70;3.60;;;;;;;21.44;27.85;95510.09;4933322;29;20451;-52
2022/05/08 08:40:40;;;;;;;9.87;3.63;;;;;;;22.26;27.70;95502.91;4936809;28;20448;-56
2022/05/08 08:43:11;;;;;;;6.07;3.60;;;;;;;22.17;26.79;95504.00;4933526;29;20459;-55
2022/05/08 08:48:32;;;;;;;4.30;3.50;;;;;;;21.87;26.97;95500.34;4933218;29;20488;-58
2022/05/08 08:51:01;;;;;;;8.53;3.50;;;;;;;22.28;26.42;95490.00;4932370;29;20508;-55
2022/05/08 08:53:29;;;;;;;8.03;3.47;;;;;;;22.60;26.38;95497.56;4933635;29;20444;-49
2022/05/08 08:55:57;;;;;;;5.70;3.23;;;;;;;21.54;26.18;95494.56;4933416;29;20462;-53
2022/05/08 08:58:23;;;;;;;7.67;3.70;;;;;;;22.24;26.64;95493.63;4933651;29;20196;-52
2022/05/08 09:00:51;;;;;;;6.73;3.60;;;;;;;22.42;26.45;95501.31;4933474;29;20495;-57
2022/05/08 09:03:25;;;;;;;7.07;3.30;;;;;;;22.88;25.19;95493.41;4934189;29;20440;-53
2022/05/08 09:06:02;;;;;;;4.53;3.23;;;;;;;23.06;25.00;95494.19;4933611;29;20328;-56
2022/05/08 09:08:32;;;;;;;7.07;3.50;;;;;;;23.47;25.68;95472.16;4933087;29;20331;-55
2022/05/08 09:10:59;;;;;;;6.50;3.50;;;;;;;23.05;26.14;95477.34;4933248;29;20232;-53
2022/05/08 09:13:30;;;;;;;6.73;4.00;;;;;;;23.34;27.05;95481.22;4933466;29;20204;-57
2022/05/08 09:16:03;;;;;;;4.67;3.63;;;;;;;23.04;25.30;95477.69;4933283;29;20299;-52
2022/05/08 09:18:45;;;;;;;8.27;4.57;;;;;;;23.89;24.60;95455.09;4932848;29;20212;-53
2022/05/08 09:24:13;;;;;;;7.10;3.47;;;;;;;23.10;26.61;95474.50;4933328;29;20205;-56
2022/05/08 09:26:41;;;;;;;11.83;3.40;;;;;;;23.05;25.64;95471.22;4932733;29;20204;-54
2022/05/08 09:29:20;;;;;;;7.53;3.73;;;;;;;24.19;24.68;95462.00;4933327;29;20299;-52
2022/05/08 09:31:47;;;;;;;12.17;3.73;;;;;;;24.43;24.91;95454.09;4933378;29;21070;-56
2022/05/08 09:34:14;;;;;;;9.10;3.77;;;;;;;24.07;24.99;95446.63;4933636;29;20200;-56
2022/05/08 09:36:42;;;;;;;8.33;3.80;;;;;;;24.47;24.98;95451.53;4936831;29;20925;-54
2022/05/08 09:39:09;;;;;;;4.13;3.00;;;;;;;24.88;24.18;95446.88;4949677;29;20196;-56
2022/05/08 09:41:38;;;;;;;7.87;3.70;;;;;;;24.58;25.29;95418.59;4951813;29;20227;-55
2022/05/08 09:44:15;;;;;;;12.60;3.50;;;;;;;24.55;22.56;95443.41;4951761;29;20219;-55
2022/05/08 09:46:45;;;;;;;6.37;2.90;;;;;;;24.70;21.63;95436.63;4951694;29;20627;-55
2022/05/08 09:49:20;;;;;;;3.30;2.30;;;;;;;24.67;20.68;95431.94;4952000;29;20777;-52
2022/05/08 09:51:48;;;;;;;6.00;2.67;;;;;;;24.63;21.25;95429.16;4950384;28;20211;-51
2022/05/08 09:54:19;;;;;;;4.70;3.20;;;;;;;24.89;23.09;95429.66;4951632;29;20674;-54
2022/05/08 09:56:47;;;;;;;5.97;3.00;;;;;;;24.84;22.08;95429.88;4951224;29;20540;-55
2022/05/08 09:59:15;;;;;;;3.27;2.60;;;;;;;24.71;21.05;95420.25;4945635;29;20205;-57
2022/05/08 10:01:42;;;;;;;3.83;2.30;;;;;;;24.83;20.50;95422.97;4940618;29;20228;-56
2022/05/08 10:04:10;;;;;;;4.40;2.17;;;;;;;24.75;19.12;95415.78;4931426;29;20218;-57
2022/05/08 10:06:39;;;;;;;5.20;2.10;;;;;;;24.96;19.22;95419.16;4929289;29;20253;-55
2022/05/08 10:14:39;;;;;;;2.93;1.90;;;;;;;24.99;17.63;95399.75;4932268;29;20698;-56
2022/05/08 10:17:07;;;;;;;5.40;2.10;;;;;;;26.28;17.61;95412.16;4932250;29;20208;-55
2022/05/08 10:19:34;;;;;;;3.80;1.90;;;;;;;25.96;17.44;95410.44;4932376;29;20205;-58
2022/05/08 10:22:05;;;;;;;2.63;1.97;;;;;;;26.25;15.70;95396.72;4931960;29;20576;-56
2022/05/08 10:24:54;;;;;;;5.10;1.83;;;;;;;25.47;17.28;95403.59;4932397;29;20586;-55
2022/05/08 10:27:29;;;;;;;4.93;2.00;;;;;;;25.78;17.06;95401.84;4932234;29;20247;-54
2022/05/08 10:29:56;;;;;;;4.37;2.20;;;;;;;26.70;17.09;95383.75;4931784;29;20230;-55
2022/05/08 10:32:28;;;;;;;12.07;2.53;;;;;;;26.62;18.32;95384.66;4932195;29;20589;-55
2022/05/08 10:35:18;;;;;;;46.00;34.40;;;;;;;26.59;17.46;95379.19;4929690;29;20205;-56
2022/05/08 10:37:51;;;;;;;17.40;15.17;;;;;;;26.28;17.04;95385.28;4929970;29;20251;-58
2022/05/08 10:40:24;;;;;;;13.33;3.00;;;;;;;27.16;18.10;95370.66;4929694;29;20961;-54
2022/05/08 10:42:55;;;;;;;3.47;2.10;;;;;;;25.56;17.75;95369.34;4929924;29;20681;-56
2022/05/08 10:45:31;;;;;;;2.80;2.10;;;;;;;26.21;17.89;95368.97;4930209;29;20626;-56
2022/05/08 10:48:16;;;;;;;5.33;2.70;;;;;;;26.48;18.13;95372.75;4931275;29;20311;-55
2022/05/08 10:50:44;;;;;;;8.10;4.67;;;;;;;27.07;18.06;95367.38;4930694;29;20344;-59
2022/05/08 10:53:39;;;;;;;6.03;2.60;;;;;;;27.29;17.33;95358.66;4932104;29;20630;-57
2022/05/08 10:56:09;;;;;;;4.00;2.10;;;;;;;26.99;17.46;95344.88;4929784;29;20601;-59
2022/05/08 10:58:40;;;;;;;2.43;2.20;;;;;;;26.80;17.00;95356.38;4933341;29;20306;-62
2022/05/08 11:01:09;;;;;;;4.37;2.33;;;;;;;27.02;17.50;95350.34;4937748;29;20196;-61
2022/05/08 11:03:37;;;;;;;5.67;2.50;;;;;;;27.16;17.47;95354.50;4935858;29;20212;-64
2022/05/08 11:06:06;;;;;;;4.03;2.40;;;;;;;27.38;16.26;95351.22;4935924;29;20235;-60
2022/05/08 11:08:35;;;;;;;7.30;3.00;;;;;;;27.26;17.41;95337.84;4936587;29;20897;-59
2022/05/08 11:11:07;;;;;;;10.57;8.13;;;;;;;27.26;17.55;95327.09;4928955;29;20746;-60
2022/05/08 11:13:48;;;;;;;9.40;3.60;;;;;;;27.16;18.00;95338.38;4930430;29;20259;-63
2022/05/08 11:16:33;;;;;;;5.30;2.43;;;;;;;27.52;17.47;95340.75;4929870;29;20196;-56
2022/05/08 11:19:03;;;;;;;6.30;2.70;;;;;;;27.59;17.23;95335.53;4931960;29;20523;-61
2022/05/08 11:21:31;;;;;;;5.27;2.87;;;;;;;26.98;18.49;95337.97;4930820;29;20200;-61
2022/05/08 11:23:58;;;;;;;6.17;2.73;;;;;;;26.97;17.08;95337.16;4931164;29;20208;-66
2022/05/08 11:26:31;;;;;;;3.73;2.10;;;;;;;27.82;15.78;95328.34;4931019;29;20196;-63
2022/05/08 11:28:59;;;;;;;64.27;56.30;;;;;;;28.47;17.09;95327.31;4930536;29;20590;-61
2022/05/08 11:31:30;;;;;;;4.80;3.77;;;;;;;26.40;14.92;95339.56;4930698;29;20193;-56
2022/05/08 11:36:44;;;;;;;5.03;2.80;;;;;;;28.21;15.45;95324.50;4930765;29;20235;-57
2022/05/08 11:39:19;;;;;;;5.37;2.33;;;;;;;28.35;15.12;95316.72;4942086;29;20207;-60
2022/05/08 11:41:49;;;;;;;3.50;2.40;;;;;;;28.50;14.97;95315.81;4950233;29;20306;-62
2022/05/08 11:44:18;;;;;;;5.40;2.33;;;;;;;28.08;15.64;95317.75;4950813;29;20674;-66
2022/05/08 11:46:50;;;;;;;3.17;1.63;;;;;;;27.70;15.06;95315.00;4949817;29;20192;-63
2022/05/08 11:49:18;;;;;;;6.67;2.10;;;;;;;28.27;15.26;95306.91;4950398;29;20176;-64
2022/05/08 11:51:53;;;;;;;5.47;1.80;;;;;;;28.47;14.74;95310.34;4950080;29;20224;-66
2022/05/08 11:54:20;;;;;;;5.37;1.90;;;;;;;27.71;14.42;95311.19;4950515;29;20266;-63
2022/05/08 11:56:49;;;;;;;3.23;1.90;;;;;;;28.72;15.53;95317.75;4949139;29;20251;-60
2022/05/08 11:59:18;;;;;;;2.40;1.40;;;;;;;28.40;14.50;95312.91;4950273;29;20239;-56
2022/05/08 12:01:56;;;;;;;14.10;11.20;;;;;;;28.08;14.44;95301.56;4949058;29;20220;-62
2022/05/08 12:04:27;;;;;;;22.93;20.60;;;;;;;28.99;15.24;95294.31;4947671;29;20299;-61
2022/05/08 12:07:05;;;;;;;4.20;3.40;;;;;;;28.49;13.26;95303.47;4949087;29;20603;-65
2022/05/08 12:09:32;;;;;;;2.90;1.50;;;;;;;28.48;13.15;95293.06;4949925;29;20204;-59
2022/05/08 12:12:29;;;;;;;47.80;42.73;;;;;;;29.19;13.57;95297.72;4947215;29;20200;-60
2022/05/08 12:15:04;;;;;;;11.73;10.63;;;;;;;29.11;12.86;95283.34;4946062;28;20196;-60
2022/05/08 12:17:41;;;;;;;4.63;1.70;;;;;;;29.33;13.54;95284.41;4948156;29;20262;-72
2022/05/08 12:20:20;;;;;;;7.50;1.70;;;;;;;28.54;12.99;95278.94;4949766;29;20223;-64
2022/05/08 12:23:16;;;;;;;4.60;1.60;;;;;;;29.25;14.97;95274.69;4932569;29;20283;-66
2022/05/08 12:25:45;;;;;;;2.73;1.80;;;;;;;29.07;13.67;95276.31;4917131;29;20579;-63
2022/05/08 12:28:13;;;;;;;6.47;1.93;;;;;;;28.15;13.65;95277.44;4935003;29;20630;-62
2022/05/08 12:30:40;;;;;;;10.97;5.93;;;;;;;28.78;14.33;95283.16;4933593;29;20303;-60
2022/05/08 12:33:07;;;;;;;4.87;3.23;;;;;;;28.81;13.49;95285.94;4934166;29;20664;-60
2022/05/08 12:35:37;;;;;;;8.80;3.70;;;;;;;27.71;13.64;95268.09;4934165;29;20568;-68
2022/05/08 12:38:04;;;;;;;2.83;1.40;;;;;;;28.11;13.67;95276.59;4934131;29;20646;-62
2022/05/08 12:40:31;;;;;;;5.27;1.80;;;;;;;28.19;12.86;95262.13;4933894;29;20221;-61
2022/05/08 12:42:59;;;;;;;3.80;1.53;;;;;;;28.76;12.88;95278.16;4934409;29;20238;-65
2022/05/08 12:45:26;;;;;;;4.97;1.60;;;;;;;29.11;13.30;95274.44;4934435;29;20212;-62
2022/05/08 12:47:53;;;;;;;3.40;1.83;;;;;;;29.44;12.51;95271.84;4934263;29;20185;-68
2022/05/08 12:50:20;;;;;;;6.53;3.73;;;;;;;29.31;13.60;95262.41;4933872;29;20201;-62
2022/05/08 12:52:50;;;;;;;32.57;29.33;;;;;;;29.44;12.40;95271.84;4933874;29;20592;-63
2022/05/08 12:55:18;;;;;;;4.23;1.73;;;;;;;29.53;12.92;95275.03;4933844;29;20231;-65
2022/05/08 13:00:47;;;;;;;11.10;1.83;;;;;;;29.56;12.92;95263.53;4911672;29;20256;-62
2022/05/08 13:03:15;;;;;;;2.93;1.30;;;;;;;29.01;13.68;95259.66;4945215;29;20211;-61
2022/05/08 13:05:44;;;;;;;4.60;1.90;;;;;;;30.19;13.90;95249.97;4952171;29;20238;-57
2022/05/08 13:08:12;;;;;;;8.70;1.70;;;;;;;30.08;13.85;95257.19;4951496;29;20801;-60
2022/05/08 13:10:39;;;;;;;6.93;1.60;;;;;;;28.85;13.10;95257.09;4952380;29;20274;-62
2022/05/08 13:13:06;;;;;;;2.77;1.60;;;;;;;27.93;13.14;95253.94;4952479;29;20203;-62
2022/05/08 13:15:33;;;;;;;3.73;2.00;;;;;;;28.97;14.27;95258.81;4952528;29;20247;-62
2022/05/08 13:18:00;;;;;;;3.10;1.50;;;;;;;29.34;14.26;95256.28;4935501;29;20687;-59
2022/05/08 13:20:27;;;;;;;6.63;2.07;;;;;;;28.49;14.34;95260.34;4951951;29;20219;-64
2022/05/08 13:22:54;;;;;;;2.37;1.67;;;;;;;28.81;14.09;95260.91;4952503;29;20954;-61
2022/05/08 13:25:21;;;;;;;4.97;1.90;;;;;;;29.84;14.76;95250.38;4952339;28;20274;-60
2022/05/08 13:27:48;;;;;;;3.80;2.60;;;;;;;29.68;15.13;95245.16;4952533;29;20690;-57
2022/05/08 13:30:15;;;;;;;5.33;2.73;;;;;;;29.65;14.70;95253.22;4951960;29;20211;-61
2022/05/08 13:32:42;;;;;;;3.87;2.40;;;;;;;29.04;13.51;95253.53;4952290;29;20210;-57
2022/05/08 13:35:11;;;;;;;5.40;1.93;;;;;;;29.96;14.28;95250.16;4951666;29;20215;-63
2022/05/08 13:37:38;;;;;;;7.93;2.10;;;;;;;29.08;14.15;95248.97;4952170;29;20198;-61
2022/05/08 13:40:05;;;;;;;5.00;1.97;;;;;;;30.09;14.67;95243.31;4951311;29;20997;-61
2022/05/08 13:42:35;;;;;;;2.27;1.60;;;;;;;30.28;14.74;95245.88;4952115;29;20342;-63
2022/05/08 13:45:04;;;;;;;4.90;1.70;;;;;;;29.15;13.48;95238.28;4952088;29;20192;-58
2022/05/08 13:47:32;;;;;;;2.13;1.63;;;;;;;28.45;14.21;95254.09;4952577;29;20203;-62
2022/05/08 13:50:02;;;;;;;6.43;2.00;;;;;;;29.50;14.08;95254.19;4951585;29;20207;-60
2022/05/08 13:52:30;;;;;;;4.30;2.10;;;;;;;29.67;14.60;95256.34;4952103;29;20243;-56
2022/05/08 13:54:57;;;;;;;4.63;1.77;;;;;;;29.90;14.31;95240.81;4951642;29;20624;-61
2022/05/08 13:57:30;;;;;;;3.33;2.20;;;;;;;29.60;14.65;95242.72;4952272;29;20204;-59
2022/05/08 13:59:57;;;;;;;4.40;2.53;;;;;;;29.82;14.47;95252.66;4951384;29;20239;-59
2022/05/08 14:02:24;;;;;;;6.03;2.60;;;;;;;28.94;14.00;95249.53;4952112;29;20238;-63
2022/05/08 14:04:52;;;;;;;5.80;2.70;;;;;;;29.41;14.63;95254.47;4950998;29;20208;-64
2022/05/08 14:07:19;;;;;;;8.63;2.43;;;;;;;29.53;14.43;95250.75;4933893;29;20204;-60
2022/05/08 14:09:46;;;;;;;9.87;2.40;;;;;;;29.54;13.82;95247.66;4951538;29;20211;-62
2022/05/08 14:12:15;;;;;;;2.70;2.03;;;;;;;27.69;14.08;95249.59;4951230;29;20207;-55
2022/05/08 14:14:42;;;;;;;8.00;2.20;;;;;;;28.61;14.91;95254.03;4951261;29;20291;-60
2022/05/08 14:17:09;;;;;;;5.53;2.30;;;;;;;29.35;14.55;95253.22;4951137;29;20199;-63
2022/05/08 14:19:36;;;;;;;3.17;2.10;;;;;;;29.31;14.55;95247.00;4951481;29;20270;-58
2022/05/08 14:22:03;;;;;;;3.20;2.73;;;;;;;29.29;14.99;95243.88;4950980;29;20220;-54
2022/05/08 14:24:30;;;;;;;9.27;2.47;;;;;;;28.83;14.75;95258.63;4934417;29;20207;-67
2022/05/08 14:26:56;;;;;;;8.07;2.13;;;;;;;29.38;14.49;95246.31;4945991;29;20206;-55
2022/05/08 14:29:23;;;;;;;4.00;2.10;;;;;;;28.38;15.23;95261.28;4951892;29;20208;-60
2022/05/08 14:37:22;;;;;;;5.17;2.53;;;;;;;30.35;15.51;95251.34;4951087;28;20472;-64
2022/05/08 14:39:50;;;;;;;6.47;2.60;;;;;;;30.41;15.09;95249.06;4950635;29;20200;-62
2022/05/08 14:42:17;;;;;;;4.90;2.70;;;;;;;29.50;15.82;95248.78;4950760;29;20223;-59
2022/05/08 14:44:44;;;;;;;5.20;2.23;;;;;;;29.46;15.89;95256.06;4951422;29;20625;-56
2022/05/08 14:47:11;;;;;;;6.93;2.60;;;;;;;29.62;16.17;95245.84;4950883;29;20192;-58
2022/05/08 14:49:38;;;;;;;5.97;2.10;;;;;;;28.76;16.07;95256.56;4950880;29;20225;-59
2022/05/08 14:52:05;;;;;;;5.53;2.37;;;;;;;29.88;15.98;95259.31;4950616;29;20679;-60
2022/05/08 14:54:32;;;;;;;6.87;2.57;;;;;;;27.81;16.77;95256.72;4950945;29;20220;-57
2022/05/08 14:56:59;;;;;;;3.57;2.60;;;;;;;28.43;17.07;95256.38;4950565;29;20212;-59
2022/05/08 14:59:26;;;;;;;4.40;2.73;;;;;;;29.32;16.89;95258.56;4948036;29;20665;-65
2022/05/08 15:01:53;;;;;;;5.93;2.63;;;;;;;29.28;16.31;95249.66;4931389;29;20223;-60
2022/05/08 15:04:22;;;;;;;6.70;2.50;;;;;;;28.76;16.08;95264.66;4931051;29;20220;-62
2022/05/08 15:06:48;;;;;;;7.23;2.30;;;;;;;28.88;16.07;95251.00;4930867;29;20201;-63
2022/05/08 15:09:15;;;;;;;3.07;2.17;;;;;;;28.68;15.55;95254.91;4934614;29;20943;-57
2022/05/08 15:11:43;;;;;;;6.53;2.63;;;;;;;28.63;16.07;95260.59;4938083;29;20199;-60
2022/05/08 15:14:11;;;;;;;7.87;3.00;;;;;;;28.48;16.44;95264.19;4942241;29;20858;-61
2022/05/08 15:16:40;;;;;;;6.27;2.73;;;;;;;29.21;17.07;95265.75;4935047;29;20201;-62
2022/05/08 15:19:07;;;;;;;8.80;3.10;;;;;;;29.74;18.01;95262.59;4941174;29;20208;-64
2022/05/08 15:21:35;;;;;;;11.87;3.27;;;;;;;28.76;17.60;95267.34;4940335;29;20223;-63